Details for EasyJet at LSGG




Go Back


Latest METAR
Local Time

LSGG 252220Z AUTO VRB01KT 9999 NSC 16/13 Q1017 NOSIG

26/05/2018, 00:24:37

Description
Results
EasyJet Logo
Number of Pilots based at LSGG
0 Pilots Based here
Number of EasyJet Flights Departed from LSGG
9 Flights Departed
Number of EasyJet Flights Arrived at LSGG
6 Flights Arrived
Number of EasyJet Schedules Departing from LSGG
243 Schedules
Number of EasyJet Schedules Arriving at LSGG
245 Schedules
Number of EasyJet Schedules Departing from LSGG availible today
71 Schedules Today
Number of EasyJet Schedules Arriving at LSGG availible today
74 Schedules Today
Average Landing Rate at LSGG
-238 fpm
EasyJet Average Landing Rate at LSGG
-189 fpm
Total Fuel Purchased at LSGG by EasyJet
32,833.73 kgs / 72,385.24 lbs

Pilots Based at LSGG


Pilot ID
Pilot Name
Pilot Rank
No. of Flights
No. of Flying Hours
There are no pilots assigned to this hub!   Will you be the first?
Content